Time;durP1;ratioP1;P1;durP2;ratioP2;P2;SDS_P1;SDS_P2;PMS_P1;PMS_P2;Temp;Humidity;BMP_temperature;BMP_pressure;BME280_temperature;BME280_humidity;BME280_pressure;Samples;Min_cycle;Max_cycle;Signal;HPM_P1;HPM_P2
2022/05/19 00:01:04;;;;;;;15.80;8.40;;;8.60;99.90;;;;;;5094791;28;20294;-59
2022/05/19 00:03:32;;;;;;;16.77;8.00;;;8.50;99.90;;;;;;5094498;28;20699;-62
2022/05/19 00:05:59;;;;;;;18.30;8.30;;;8.50;99.90;;;;;;5094584;28;20257;-60
2022/05/19 00:08:26;;;;;;;14.97;8.17;;;8.50;99.90;;;;;;5094449;28;20636;-61
2022/05/19 00:10:56;;;;;;;14.53;8.07;;;8.50;99.90;;;;;;5094291;28;20204;-60
2022/05/19 00:13:23;;;;;;;17.40;8.13;;;8.50;99.90;;;;;;5094299;28;20184;-61
2022/05/19 00:15:49;;;;;;;13.03;7.40;;;8.50;99.90;;;;;;5094014;28;20208;-60
2022/05/19 00:18:16;;;;;;;12.23;7.47;;;8.50;99.90;;;;;;5093296;28;20200;-61
2022/05/19 00:20:44;;;;;;;10.97;6.93;;;8.50;99.90;;;;;;5094148;28;20303;-60
2022/05/19 00:23:10;;;;;;;11.33;6.60;;;8.50;99.90;;;;;;5093762;28;20204;-61
2022/05/19 00:25:37;;;;;;;12.77;6.90;;;8.50;99.90;;;;;;5094343;28;20657;-62
2022/05/19 00:28:06;;;;;;;12.43;6.60;;;8.50;99.90;;;;;;5094102;28;20235;-61
2022/05/19 00:30:33;;;;;;;10.77;6.37;;;8.50;99.90;;;;;;5094236;28;20204;-60
2022/05/19 00:33:00;;;;;;;14.30;6.57;;;8.50;99.90;;;;;;5093944;28;20676;-60
2022/05/19 00:35:27;;;;;;;11.63;5.80;;;8.50;99.90;;;;;;5094214;28;20206;-61
2022/05/19 00:37:54;;;;;;;9.07;5.70;;;8.50;99.90;;;;;;5094125;28;20227;-61
2022/05/19 00:40:23;;;;;;;13.40;5.70;;;8.50;99.90;;;;;;5094229;28;20210;-60
2022/05/19 00:42:51;;;;;;;10.43;5.80;;;8.50;99.90;;;;;;5093897;28;20200;-60
2022/05/19 00:45:21;;;;;;;13.63;6.20;;;8.50;99.90;;;;;;5093555;28;20224;-60
2022/05/19 00:47:52;;;;;;;8.10;5.57;;;8.50;99.90;;;;;;5093536;28;20210;-62
2022/05/19 00:50:25;;;;;;;11.47;5.80;;;8.50;99.90;;;;;;5093675;28;20702;-61
2022/05/19 00:52:55;;;;;;;10.77;5.60;;;8.50;99.90;;;;;;5093845;28;20649;-61
2022/05/19 00:55:29;;;;;;;8.77;5.50;;;8.50;99.90;;;;;;5093518;28;20192;-60
2022/05/19 00:57:58;;;;;;;11.60;5.63;;;8.50;99.90;;;;;;5093657;28;20196;-61
2022/05/19 01:00:27;;;;;;;10.17;5.87;;;8.50;99.90;;;;;;5093732;28;20204;-61
2022/05/19 01:02:57;;;;;;;10.23;5.57;;;8.50;99.90;;;;;;5093640;28;20684;-60
2022/05/19 01:05:28;;;;;;;8.40;5.77;;;8.50;99.90;;;;;;5093604;28;20200;-61
2022/05/19 01:08:01;;;;;;;9.40;5.97;;;8.50;99.90;;;;;;5093108;28;20192;-61
2022/05/19 01:10:28;;;;;;;9.13;5.10;;;8.50;99.90;;;;;;5092918;28;20204;-60
2022/05/19 01:12:55;;;;;;;9.00;5.57;;;8.50;99.90;;;;;;5092984;28;20208;-61
2022/05/19 01:15:23;;;;;;;9.47;5.47;;;8.50;99.90;;;;;;5092914;28;20208;-60
2022/05/19 01:17:51;;;;;;;9.90;6.27;;;8.50;99.90;;;;;;5092701;28;20208;-61
2022/05/19 01:20:21;;;;;;;10.77;6.13;;;8.50;99.90;;;;;;5093128;28;20642;-62
2022/05/19 01:22:56;;;;;;;8.67;5.90;;;8.50;99.90;;;;;;5093045;28;20200;-61
2022/05/19 01:25:32;;;;;;;9.13;5.80;;;8.40;99.90;;;;;;5092994;28;20549;-62
2022/05/19 01:28:01;;;;;;;12.17;6.00;;;8.30;99.90;;;;;;5092845;28;20192;-61
2022/05/19 01:30:27;;;;;;;11.03;6.37;;;8.30;99.90;;;;;;5091984;28;20254;-62
2022/05/19 01:32:55;;;;;;;9.37;5.97;;;8.30;99.90;;;;;;5092559;28;20207;-61
2022/05/19 01:35:22;;;;;;;11.23;6.00;;;8.30;99.90;;;;;;5092950;28;20211;-61
2022/05/19 01:37:49;;;;;;;12.20;5.97;;;8.30;99.90;;;;;;5092387;28;20215;-60
2022/05/19 01:40:33;;;;;;;7.70;5.60;;;8.30;99.90;;;;;;5092648;28;20658;-60
2022/05/19 01:43:09;;;;;;;11.07;6.20;;;8.30;99.90;;;;;;5092566;28;20502;-60
2022/05/19 01:45:56;;;;;;;10.57;5.83;;;8.30;99.90;;;;;;5092600;28;20685;-60
2022/05/19 01:48:31;;;;;;;10.20;5.70;;;8.30;99.90;;;;;;5092217;28;20207;-59
2022/05/19 01:51:06;;;;;;;10.27;6.10;;;8.20;99.90;;;;;;5092363;28;20188;-60
2022/05/19 01:53:39;;;;;;;9.63;6.27;;;8.30;99.90;;;;;;5092477;28;20647;-60
2022/05/19 01:56:12;;;;;;;11.70;6.30;;;8.20;99.90;;;;;;5091823;28;20227;-60
2022/05/19 01:58:48;;;;;;;14.67;6.67;;;8.20;99.90;;;;;;5092223;28;20188;-59
2022/05/19 02:01:18;;;;;;;11.60;6.33;;;8.10;99.90;;;;;;5092373;28;20195;-61
2022/05/19 02:03:53;;;;;;;11.40;6.60;;;8.10;99.90;;;;;;5092190;28;20239;-61
2022/05/19 02:06:24;;;;;;;10.80;6.57;;;8.10;99.90;;;;;;5092308;28;20203;-61
2022/05/19 02:08:57;;;;;;;15.30;6.97;;;8.10;99.90;;;;;;5092119;28;20222;-60
2022/05/19 02:11:29;;;;;;;12.77;6.70;;;8.00;99.90;;;;;;5092245;28;20565;-61
2022/05/19 02:14:01;;;;;;;13.80;6.80;;;8.10;99.90;;;;;;5091683;28;20192;-61
2022/05/19 02:16:30;;;;;;;13.80;6.70;;;8.10;99.90;;;;;;5092317;28;20193;-60
2022/05/19 02:18:57;;;;;;;13.53;7.03;;;8.10;99.90;;;;;;5091648;28;20295;-60
2022/05/19 02:21:25;;;;;;;10.87;6.83;;;8.00;99.90;;;;;;5092074;28;20204;-61
2022/05/19 02:23:53;;;;;;;12.77;6.83;;;8.00;99.90;;;;;;5091634;28;20204;-60
2022/05/19 02:26:20;;;;;;;12.37;6.80;;;8.00;99.90;;;;;;5091856;28;20292;-62
2022/05/19 02:28:49;;;;;;;17.43;7.63;;;8.00;99.90;;;;;;5091717;28;20583;-61
2022/05/19 02:31:17;;;;;;;12.70;7.50;;;8.00;99.90;;;;;;5091721;28;20215;-61
2022/05/19 02:33:44;;;;;;;13.00;7.63;;;8.00;99.90;;;;;;5091762;28;20560;-61
2022/05/19 02:36:12;;;;;;;15.07;7.10;;;8.00;99.90;;;;;;5091670;28;20545;-60
2022/05/19 02:38:39;;;;;;;14.97;7.67;;;8.00;99.90;;;;;;5091730;28;20199;-60
2022/05/19 02:41:06;;;;;;;14.40;7.43;;;8.00;99.90;;;;;;5091520;28;20227;-61
2022/05/19 02:43:33;;;;;;;15.47;8.07;;;8.00;99.90;;;;;;5091777;28;20204;-60
2022/05/19 02:46:00;;;;;;;14.63;7.57;;;8.10;99.90;;;;;;5091258;28;20230;-60
2022/05/19 02:48:29;;;;;;;17.80;8.40;;;8.10;99.90;;;;;;5091549;28;20215;-60
2022/05/19 02:50:56;;;;;;;15.03;8.07;;;8.10;99.90;;;;;;5091265;28;20331;-60
2022/05/19 02:53:22;;;;;;;13.97;7.77;;;8.10;99.90;;;;;;5091898;28;20273;-61
2022/05/19 02:55:49;;;;;;;14.57;8.37;;;8.10;99.90;;;;;;5091233;28;20227;-60
2022/05/19 02:58:16;;;;;;;14.03;7.30;;;8.10;99.90;;;;;;5091368;28;20214;-60
2022/05/19 03:00:45;;;;;;;13.97;7.80;;;8.10;99.90;;;;;;5091235;28;20204;-60
2022/05/19 03:03:12;;;;;;;15.83;8.30;;;8.10;99.90;;;;;;5091483;28;20215;-61
2022/05/19 03:05:41;;;;;;;15.87;7.90;;;8.10;99.90;;;;;;5091388;28;20220;-60
2022/05/19 03:08:09;;;;;;;15.43;8.40;;;8.10;99.90;;;;;;5091281;28;20214;-60
2022/05/19 03:10:36;;;;;;;18.73;7.97;;;8.10;99.90;;;;;;5091314;28;20219;-60
2022/05/19 03:13:04;;;;;;;13.03;7.63;;;8.20;99.90;;;;;;5091232;28;20261;-60
2022/05/19 03:15:32;;;;;;;17.40;8.23;;;8.20;99.90;;;;;;5091188;28;20211;-60
2022/05/19 03:17:59;;;;;;;15.77;7.70;;;8.30;99.90;;;;;;5091319;28;20303;-61
2022/05/19 03:20:26;;;;;;;15.90;8.40;;;8.30;99.90;;;;;;5091111;28;20242;-61
2022/05/19 03:22:54;;;;;;;17.20;8.77;;;8.30;99.90;;;;;;5091376;28;20214;-60
2022/05/19 03:25:21;;;;;;;17.50;8.13;;;8.40;99.90;;;;;;5090921;28;20200;-61
2022/05/19 03:27:48;;;;;;;18.77;8.60;;;8.30;99.90;;;;;;5091206;28;20200;-61
2022/05/19 03:30:16;;;;;;;16.37;8.63;;;8.40;99.90;;;;;;5091010;28;20231;-60
2022/05/19 03:32:44;;;;;;;17.00;8.73;;;8.40;99.90;;;;;;5091223;28;20204;-61
2022/05/19 03:35:12;;;;;;;18.77;9.20;;;8.40;99.90;;;;;;5090984;28;20215;-60
2022/05/19 03:37:39;;;;;;;16.70;8.50;;;8.40;99.90;;;;;;5090993;28;20281;-61
2022/05/19 03:40:09;;;;;;;16.60;8.33;;;8.40;99.90;;;;;;5091217;28;20565;-61
2022/05/19 03:42:36;;;;;;;18.50;8.57;;;8.50;99.90;;;;;;5090797;28;20188;-59
2022/05/19 03:45:04;;;;;;;16.93;8.37;;;8.50;99.90;;;;;;5091087;28;20220;-61
2022/05/19 03:47:31;;;;;;;15.20;7.97;;;8.60;99.90;;;;;;5090858;28;20208;-59
2022/05/19 03:49:58;;;;;;;18.93;8.53;;;8.60;99.90;;;;;;5091300;28;20239;-60
2022/05/19 03:52:25;;;;;;;16.60;8.20;;;8.60;99.90;;;;;;5091280;28;20208;-61
2022/05/19 03:54:52;;;;;;;17.50;9.13;;;8.60;99.90;;;;;;5094267;28;20204;-60
2022/05/19 03:57:23;;;;;;;17.33;8.40;;;8.60;99.90;;;;;;5094377;28;20235;-61
2022/05/19 03:59:50;;;;;;;20.00;8.90;;;8.70;99.90;;;;;;5094352;28;20325;-60
2022/05/19 04:02:17;;;;;;;16.50;9.07;;;8.70;99.90;;;;;;5094532;28;20216;-61
2022/05/19 04:04:44;;;;;;;18.77;8.90;;;8.70;99.90;;;;;;5094440;28;20556;-60
2022/05/19 04:07:11;;;;;;;17.60;8.20;;;8.80;99.90;;;;;;5094287;28;20216;-62
2022/05/19 04:09:38;;;;;;;17.33;8.40;;;8.90;99.90;;;;;;5093940;28;20230;-61
2022/05/19 04:12:06;;;;;;;17.77;8.50;;;9.00;99.90;;;;;;5094454;28;20652;-61
2022/05/19 04:14:34;;;;;;;18.20;8.20;;;9.00;99.90;;;;;;5093917;28;20210;-60
2022/05/19 04:17:01;;;;;;;16.80;8.80;;;9.10;99.90;;;;;;5094524;28;20585;-61
2022/05/19 04:19:27;;;;;;;19.73;9.17;;;9.20;99.90;;;;;;5094272;28;20207;-60
2022/05/19 04:21:54;;;;;;;20.23;8.80;;;9.30;99.90;;;;;;5094187;28;20204;-59
2022/05/19 04:24:21;;;;;;;19.87;8.33;;;9.40;99.90;;;;;;5094297;28;20208;-62
2022/05/19 04:26:49;;;;;;;18.23;8.63;;;9.50;99.90;;;;;;5094095;28;20204;-61
2022/05/19 04:29:15;;;;;;;16.93;8.50;;;9.60;99.90;;;;;;5093864;28;20212;-62
2022/05/19 04:31:44;;;;;;;16.67;8.77;;;9.60;99.90;;;;;;5093997;28;20211;-60
2022/05/19 04:34:10;;;;;;;17.30;9.00;;;9.70;99.90;;;;;;5094110;28;20688;-61
2022/05/19 04:36:37;;;;;;;19.63;8.77;;;9.80;99.90;;;;;;5093963;28;20737;-60
2022/05/19 04:39:04;;;;;;;15.67;7.90;;;9.80;99.90;;;;;;5093699;28;20208;-61
2022/05/19 04:41:32;;;;;;;15.07;8.47;;;9.90;99.90;;;;;;5093891;28;20211;-60
2022/05/19 04:43:59;;;;;;;19.23;8.47;;;10.10;99.90;;;;;;5093856;28;20204;-60
2022/05/19 04:46:26;;;;;;;15.20;8.20;;;10.10;99.90;;;;;;5093581;28;20228;-62
2022/05/19 04:48:54;;;;;;;18.57;8.80;;;10.20;99.90;;;;;;5093513;28;20200;-61
2022/05/19 04:51:21;;;;;;;20.90;9.40;;;10.30;99.90;;;;;;5093958;28;20610;-61
2022/05/19 04:53:48;;;;;;;15.50;8.03;;;10.30;99.90;;;;;;5093827;28;20560;-63
2022/05/19 04:56:14;;;;;;;16.07;8.10;;;10.40;99.90;;;;;;5093349;28;20602;-60
2022/05/19 04:58:41;;;;;;;16.77;8.70;;;10.40;99.90;;;;;;5093061;28;20204;-61
2022/05/19 05:01:09;;;;;;;19.33;8.00;;;10.50;99.90;;;;;;5093301;28;20200;-60
2022/05/19 05:03:36;;;;;;;16.90;8.70;;;10.60;99.90;;;;;;5093444;28;20557;-60
2022/05/19 05:06:04;;;;;;;17.17;8.63;;;10.70;99.90;;;;;;5093494;28;20239;-62
2022/05/19 05:08:31;;;;;;;19.03;9.13;;;10.80;99.90;;;;;;5093260;28;20285;-61
2022/05/19 05:10:57;;;;;;;21.07;9.27;;;10.90;99.90;;;;;;5093327;28;20226;-61
2022/05/19 05:13:24;;;;;;;18.87;8.87;;;11.00;99.90;;;;;;5093314;28;20204;-61
2022/05/19 05:15:51;;;;;;;20.73;9.37;;;11.20;99.90;;;;;;5093277;28;20274;-61
2022/05/19 05:18:18;;;;;;;16.20;8.80;;;11.30;99.90;;;;;;5093243;28;20208;-61
2022/05/19 05:20:45;;;;;;;19.97;9.33;;;11.40;99.90;;;;;;5092922;28;20210;-61
2022/05/19 05:23:13;;;;;;;17.30;8.70;;;11.40;99.90;;;;;;5093048;28;20212;-61
2022/05/19 05:25:40;;;;;;;20.90;9.40;;;11.50;99.90;;;;;;5092896;28;20518;-59
2022/05/19 05:28:08;;;;;;;19.53;9.00;;;11.60;99.90;;;;;;5093059;28;20208;-61
2022/05/19 05:30:35;;;;;;;22.60;8.97;;;11.70;99.90;;;;;;5092397;28;20267;-60
2022/05/19 05:33:07;;;;;;;22.27;9.97;;;11.80;99.90;;;;;;5092834;28;20688;-61
2022/05/19 05:35:34;;;;;;;20.80;9.30;;;11.80;99.90;;;;;;5092583;28;20204;-59
2022/05/19 05:38:01;;;;;;;20.13;9.77;;;11.90;99.90;;;;;;5092463;28;20208;-60
2022/05/19 05:40:29;;;;;;;16.70;8.50;;;12.00;99.90;;;;;;5092292;28;20211;-62
2022/05/19 05:42:55;;;;;;;17.60;8.70;;;12.10;99.90;;;;;;5092588;28;20210;-61
2022/05/19 05:45:22;;;;;;;14.93;8.60;;;12.20;99.90;;;;;;5092587;28;20224;-60
2022/05/19 05:47:49;;;;;;;15.93;9.13;;;12.30;99.90;;;;;;5092311;28;20219;-60
2022/05/19 05:50:16;;;;;;;17.17;8.33;;;12.40;99.90;;;;;;5092400;28;20231;-62
2022/05/19 05:52:43;;;;;;;20.10;9.67;;;12.50;99.90;;;;;;5092604;28;20684;-60
2022/05/19 05:55:10;;;;;;;22.23;9.50;;;12.60;99.90;;;;;;5092541;28;20226;-61
2022/05/19 05:57:38;;;;;;;21.77;9.77;;;12.70;99.90;;;;;;5091766;28;20250;-61
2022/05/19 06:00:07;;;;;;;24.73;9.80;;;12.80;99.90;;;;;;5092562;28;20196;-62
2022/05/19 06:02:34;;;;;;;16.53;8.43;;;12.90;99.90;;;;;;5092251;28;20204;-60
2022/05/19 06:05:00;;;;;;;17.60;8.97;;;12.90;99.90;;;;;;5092750;28;20200;-62
2022/05/19 06:07:29;;;;;;;20.37;10.40;;;13.00;99.90;;;;;;5092436;28;20689;-61
2022/05/19 06:09:56;;;;;;;23.17;9.77;;;13.00;99.90;;;;;;5092133;28;20644;-62
2022/05/19 06:12:23;;;;;;;21.07;9.73;;;13.20;99.90;;;;;;5091917;28;20729;-62
2022/05/19 06:14:53;;;;;;;20.47;9.17;;;13.30;99.90;;;;;;5092086;28;20204;-61
2022/05/19 06:17:19;;;;;;;21.93;8.97;;;13.40;99.90;;;;;;5091677;28;20211;-63
2022/05/19 06:19:46;;;;;;;23.13;9.93;;;13.50;99.90;;;;;;5091791;28;20207;-60
2022/05/19 06:22:13;;;;;;;16.73;8.23;;;13.60;99.90;;;;;;5091628;28;20208;-62
2022/05/19 06:24:40;;;;;;;17.47;8.53;;;13.70;99.90;;;;;;5091741;28;20216;-61
2022/05/19 06:27:07;;;;;;;16.87;8.50;;;13.90;99.90;;;;;;5091756;28;20215;-62
2022/05/19 06:29:33;;;;;;;17.43;7.77;;;14.00;99.90;;;;;;5091944;28;20208;-61
2022/05/19 06:32:02;;;;;;;14.53;7.17;;;14.00;99.90;;;;;;5091705;28;20224;-61
2022/05/19 06:34:28;;;;;;;13.07;6.60;;;14.10;99.90;;;;;;5091829;28;20589;-61
2022/05/19 06:36:56;;;;;;;13.47;6.10;;;14.10;99.90;;;;;;5091736;28;20207;-62
2022/05/19 06:39:22;;;;;;;14.83;6.87;;;14.20;99.90;;;;;;5091577;28;20208;-61
2022/05/19 06:42:01;;;;;;;15.50;6.67;;;14.30;99.90;;;;;;5091616;28;20204;-62
2022/05/19 06:44:29;;;;;;;15.83;7.33;;;14.40;99.90;;;;;;5091733;28;20228;-61
2022/05/19 06:46:56;;;;;;;18.40;7.17;;;14.60;99.90;;;;;;5091902;28;20605;-60
2022/05/19 06:49:25;;;;;;;11.37;5.13;;;14.60;99.90;;;;;;5091555;28;20227;-61
2022/05/19 06:51:52;;;;;;;13.77;5.97;;;14.50;99.90;;;;;;5091755;28;20246;-62
2022/05/19 06:54:19;;;;;;;10.83;5.47;;;14.60;99.90;;;;;;5091612;28;20208;-61
2022/05/19 06:56:45;;;;;;;13.33;5.97;;;14.70;99.90;;;;;;5091268;28;20240;-62
2022/05/19 06:59:15;;;;;;;12.53;5.60;;;14.70;99.90;;;;;;5091620;28;20203;-61
2022/05/19 07:01:42;;;;;;;12.13;5.53;;;14.90;99.90;;;;;;5091769;28;20204;-61
2022/05/19 07:04:09;;;;;;;15.17;7.07;;;15.00;99.90;;;;;;5091257;28;20223;-62
2022/05/19 07:06:37;;;;;;;11.33;5.63;;;15.10;99.90;;;;;;5091236;28;20203;-61
2022/05/19 07:09:04;;;;;;;9.20;4.87;;;15.20;99.90;;;;;;5091341;28;20207;-61
2022/05/19 07:11:30;;;;;;;14.33;5.63;;;15.30;99.90;;;;;;5091549;28;20219;-61
2022/05/19 07:14:00;;;;;;;11.87;5.57;;;15.40;99.90;;;;;;5091957;28;20554;-61
2022/05/19 07:16:27;;;;;;;13.57;5.60;;;15.40;99.90;;;;;;5091558;28;20231;-63
2022/05/19 07:20:43;;;;;;;11.80;5.60;;;15.50;99.90;;;;;;5091635;28;20294;-63
2022/05/19 07:21:43;;;;;;;10.57;5.07;;;15.50;99.90;;;;;;5091245;28;20180;-61
2022/05/19 07:24:15;;;;;;;10.77;5.20;;;15.60;99.90;;;;;;5091389;28;20283;-61
2022/05/19 07:26:42;;;;;;;14.70;6.03;;;15.70;99.90;;;;;;5091265;28;20218;-62
2022/05/19 07:29:09;;;;;;;14.40;5.40;;;15.80;99.90;;;;;;5093396;28;20204;-61
2022/05/19 07:31:37;;;;;;;13.00;5.60;;;15.80;99.90;;;;;;5095405;28;20862;-61
2022/05/19 07:34:05;;;;;;;12.57;5.43;;;15.90;99.90;;;;;;5094932;28;20204;-62
2022/05/19 07:36:32;;;;;;;10.97;5.70;;;15.90;99.90;;;;;;5095403;28;20200;-61
2022/05/19 07:39:01;;;;;;;13.23;6.63;;;16.00;99.90;;;;;;5094660;28;20242;-62
2022/05/19 07:41:28;;;;;;;13.93;6.73;;;16.00;99.90;;;;;;5094829;28;20204;-61
2022/05/19 07:43:55;;;;;;;11.70;5.63;;;16.10;99.90;;;;;;5094783;28;20200;-61
2022/05/19 07:46:23;;;;;;;9.47;4.60;;;16.20;99.90;;;;;;5094620;28;20210;-61
2022/05/19 07:48:49;;;;;;;5.87;3.47;;;16.20;99.90;;;;;;5095016;28;20204;-62
2022/05/19 07:51:16;;;;;;;5.77;3.77;;;16.30;99.90;;;;;;5094751;28;20310;-60
2022/05/19 07:53:43;;;;;;;11.93;4.27;;;16.40;99.90;;;;;;5094725;28;20210;-62
2022/05/19 07:56:11;;;;;;;7.07;3.60;;;16.40;99.90;;;;;;5094330;28;20236;-62
2022/05/19 07:58:38;;;;;;;9.50;3.40;;;16.40;99.90;;;;;;5094873;28;20208;-62
2022/05/19 08:01:05;;;;;;;5.60;2.90;;;16.50;99.90;;;;;;5094614;28;20207;-62
2022/05/19 08:03:32;;;;;;;5.43;2.43;;;16.60;99.90;;;;;;5094540;28;20210;-63
2022/05/19 08:05:58;;;;;;;6.40;2.10;;;16.60;99.90;;;;;;5094613;28;20605;-62
2022/05/19 08:08:25;;;;;;;4.07;1.93;;;16.50;99.90;;;;;;5094628;28;20708;-61
2022/05/19 08:10:54;;;;;;;5.03;2.40;;;16.60;99.90;;;;;;5094445;28;20223;-61
2022/05/19 08:16:06;;;;;;;6.73;3.07;;;16.60;99.90;;;;;;5094097;28;20190;-64
2022/05/19 08:18:33;;;;;;;4.27;2.13;;;16.60;99.90;;;;;;5094248;28;20207;-64
2022/05/19 08:21:04;;;;;;;3.10;1.90;;;16.60;99.90;;;;;;5094225;28;20680;-62
2022/05/19 08:23:33;;;;;;;4.50;1.73;;;16.60;99.90;;;;;;5094026;28;20195;-61
2022/05/19 08:26:02;;;;;;;3.73;1.83;;;16.60;99.90;;;;;;5093977;28;20207;-61
2022/05/19 08:28:30;;;;;;;5.07;1.80;;;16.60;99.90;;;;;;5094245;28;20598;-63
2022/05/19 08:30:59;;;;;;;4.27;1.97;;;16.70;99.90;;;;;;5093536;28;20234;-62
2022/05/19 08:33:27;;;;;;;4.10;2.20;;;16.80;99.90;;;;;;5094025;28;20664;-61
2022/05/19 08:35:54;;;;;;;3.63;2.27;;;16.80;99.90;;;;;;5093858;28;20219;-62
2022/05/19 08:38:21;;;;;;;2.47;1.80;;;16.70;99.90;;;;;;5093816;28;20202;-62
2022/05/19 08:40:51;;;;;;;5.37;2.30;;;16.80;99.90;;;;;;5093401;28;20252;-64
2022/05/19 08:43:20;;;;;;;6.60;2.27;;;16.80;99.90;;;;;;5094309;28;20204;-63
2022/05/19 08:45:51;;;;;;;7.93;2.27;;;16.80;99.90;;;;;;5093777;28;20224;-63
2022/05/19 08:48:21;;;;;;;3.53;2.13;;;16.80;99.90;;;;;;5093768;28;20630;-62
2022/05/19 08:50:51;;;;;;;3.30;2.10;;;17.00;99.90;;;;;;5093320;28;20269;-61
2022/05/19 08:53:19;;;;;;;5.90;2.43;;;17.10;99.90;;;;;;5093423;28;20190;-62
2022/05/19 08:55:51;;;;;;;6.03;2.63;;;17.10;99.90;;;;;;5093517;28;20247;-62
2022/05/19 08:58:40;;;;;;;3.10;2.33;;;17.10;99.90;;;;;;5093459;28;20207;-61
2022/05/19 09:01:16;;;;;;;5.03;2.23;;;17.10;99.90;;;;;;5093936;28;20199;-62
2022/05/19 09:03:55;;;;;;;6.83;2.37;;;17.20;99.90;;;;;;5093228;28;20196;-61
2022/05/19 09:06:34;;;;;;;8.97;2.43;;;17.30;99.90;;;;;;5093463;28;20522;-61
2022/05/19 09:09:22;;;;;;;5.63;2.40;;;17.40;99.70;;;;;;5093609;28;20192;-64
2022/05/19 09:11:56;;;;;;;7.03;2.27;;;17.40;99.20;;;;;;5093237;28;20244;-62
2022/05/19 09:14:26;;;;;;;6.07;2.50;;;17.40;98.70;;;;;;5093836;28;20618;-65
2022/05/19 09:16:59;;;;;;;6.10;2.50;;;17.40;98.50;;;;;;5093103;28;20207;-61
2022/05/19 09:19:32;;;;;;;5.57;2.63;;;17.40;97.70;;;;;;5093300;28;20192;-62
2022/05/19 09:22:06;;;;;;;6.27;2.90;;;17.50;97.70;;;;;;5092814;28;20196;-61
2022/05/19 09:24:33;;;;;;;7.87;3.00;;;17.60;98.00;;;;;;5093080;28;20193;-61
2022/05/19 09:27:01;;;;;;;5.80;2.60;;;17.60;97.90;;;;;;5093338;28;20210;-61
2022/05/19 09:29:32;;;;;;;7.33;2.83;;;17.70;98.00;;;;;;5093100;28;20559;-63
2022/05/19 09:32:12;;;;;;;6.43;2.83;;;17.80;97.20;;;;;;5092759;28;20220;-64
2022/05/19 09:34:39;;;;;;;6.90;2.93;;;17.80;96.90;;;;;;5093043;28;20189;-62
2022/05/19 09:37:10;;;;;;;9.40;2.80;;;17.80;96.70;;;;;;5093203;28;20566;-63
2022/05/19 09:39:54;;;;;;;11.67;2.97;;;17.80;96.80;;;;;;5092913;28;20211;-62
2022/05/19 09:42:24;;;;;;;6.93;2.73;;;17.80;95.90;;;;;;5092795;28;20278;-63
2022/05/19 09:44:56;;;;;;;10.33;2.67;;;17.90;95.90;;;;;;5092545;28;20335;-61
2022/05/19 09:47:31;;;;;;;6.37;3.00;;;18.00;95.00;;;;;;5092328;28;20283;-61
2022/05/19 09:50:08;;;;;;;6.13;2.73;;;18.00;94.90;;;;;;5092442;28;20185;-62
2022/05/19 09:52:36;;;;;;;8.43;3.13;;;18.10;94.80;;;;;;5091752;28;20205;-61
2022/05/19 09:55:06;;;;;;;4.77;2.83;;;18.10;95.10;;;;;;5092232;28;20210;-61
2022/05/19 09:57:44;;;;;;;6.80;2.50;;;18.20;94.90;;;;;;5091892;28;20236;-61
2022/05/19 10:00:21;;;;;;;5.77;2.67;;;18.20;93.70;;;;;;5092399;28;20196;-62
2022/05/19 10:02:55;;;;;;;4.90;2.50;;;18.20;93.20;;;;;;5092248;28;20182;-63
2022/05/19 10:05:36;;;;;;;6.60;2.50;;;18.30;92.70;;;;;;5092054;28;20638;-61
2022/05/19 10:08:07;;;;;;;6.43;2.73;;;18.30;92.80;;;;;;5092253;28;20644;-62
2022/05/19 10:10:43;;;;;;;5.93;2.90;;;18.30;93.40;;;;;;5092200;28;20586;-62
2022/05/19 10:13:14;;;;;;;6.20;2.50;;;18.30;93.10;;;;;;5091979;28;20294;-61
2022/05/19 10:15:51;;;;;;;5.17;2.80;;;18.30;93.20;;;;;;5092224;28;20674;-61
2022/05/19 10:18:38;;;;;;;5.73;2.47;;;18.40;93.30;;;;;;5091936;28;20191;-62
2022/05/19 10:21:15;;;;;;;5.83;2.60;;;18.50;92.70;;;;;;5091836;28;20195;-62
2022/05/19 10:24:03;;;;;;;4.63;2.43;;;18.60;92.40;;;;;;5091509;28;20299;-61
2022/05/19 10:26:42;;;;;;;6.20;2.40;;;18.60;92.50;;;;;;5091797;28;20194;-61
2022/05/19 10:32:41;;;;;;;5.83;2.10;;;18.70;90.50;;;;;;5091867;28;20204;-61
2022/05/19 10:35:16;;;;;;;4.50;2.53;;;18.80;90.90;;;;;;5091934;28;20624;-62
2022/05/19 10:37:57;;;;;;;4.17;2.40;;;18.90;91.10;;;;;;5091748;28;20317;-62
2022/05/19 10:40:34;;;;;;;8.87;2.23;;;18.80;90.30;;;;;;5091788;28;20207;-64
2022/05/19 10:43:14;;;;;;;3.30;1.90;;;18.80;90.70;;;;;;5091986;28;20198;-61
2022/05/19 10:45:46;;;;;;;4.13;1.77;;;18.90;90.60;;;;;;5091365;28;20235;-62
2022/05/19 10:48:39;;;;;;;5.47;2.07;;;19.00;88.20;;;;;;5091545;28;20202;-60
2022/05/19 10:51:12;;;;;;;3.00;1.70;;;19.00;88.70;;;;;;5091655;28;20196;-63
2022/05/19 10:53:54;;;;;;;3.50;2.07;;;19.20;88.20;;;;;;5091302;28;20193;-63
2022/05/19 10:56:38;;;;;;;4.07;1.83;;;19.30;88.30;;;;;;5091434;28;20245;-62
2022/05/19 10:59:22;;;;;;;4.23;1.70;;;19.30;86.60;;;;;;5091746;28;20195;-63
2022/05/19 11:01:58;;;;;;;3.73;2.03;;;19.30;88.00;;;;;;5091550;28;20188;-62
2022/05/19 11:04:55;;;;;;;3.87;1.80;;;19.30;85.90;;;;;;5095782;28;20494;-63
2022/05/19 11:07:33;;;;;;;5.10;1.83;;;19.40;85.80;;;;;;5095708;28;20190;-62
2022/05/19 11:10:08;;;;;;;4.63;1.90;;;19.50;86.30;;;;;;5096014;28;20226;-62
2022/05/19 11:12:43;;;;;;;5.47;2.10;;;19.60;85.10;;;;;;5095367;28;20218;-64
2022/05/19 11:15:17;;;;;;;4.90;1.80;;;19.60;83.90;;;;;;5095769;28;20592;-61
2022/05/19 11:17:56;;;;;;;2.80;1.80;;;19.60;84.60;;;;;;5095540;28;20253;-61
2022/05/19 11:20:26;;;;;;;4.77;1.90;;;19.70;85.80;;;;;;5095511;28;20184;-64
2022/05/19 11:23:01;;;;;;;4.57;1.80;;;19.80;86.70;;;;;;5095552;28;20640;-63
2022/05/19 11:28:21;;;;;;;2.50;1.60;;;20.10;84.30;;;;;;5095090;28;20191;-63
2022/05/19 11:30:53;;;;;;;5.83;1.80;;;20.20;85.10;;;;;;5095231;28;20189;-64
2022/05/19 11:33:24;;;;;;;3.17;1.47;;;20.40;83.20;;;;;;5095271;28;20209;-62
2022/05/19 11:35:57;;;;;;;4.57;1.40;;;20.50;83.60;;;;;;5095097;28;20603;-62
2022/05/19 11:38:31;;;;;;;3.43;1.47;;;20.70;82.90;;;;;;5094871;28;20280;-62
2022/05/19 11:41:02;;;;;;;3.97;1.67;;;20.80;82.10;;;;;;5095107;28;20218;-61
2022/05/19 11:43:35;;;;;;;3.57;1.40;;;20.90;80.80;;;;;;5094814;28;20196;-62
2022/05/19 11:46:06;;;;;;;2.00;1.20;;;20.90;80.20;;;;;;5094794;28;20236;-63
2022/05/19 11:57:13;;;;;;;1.83;1.40;;;20.60;79.80;;;;;;5094123;28;20254;-61
2022/05/19 11:59:46;;;;;;;3.00;1.40;;;20.60;80.60;;;;;;5094393;28;20671;-62
2022/05/19 12:02:17;;;;;;;3.83;1.30;;;20.50;80.10;;;;;;5094708;28;20270;-63
2022/05/19 12:04:45;;;;;;;2.30;1.30;;;20.50;80.30;;;;;;5094533;28;20290;-63
2022/05/19 12:07:22;;;;;;;4.10;1.50;;;20.50;80.40;;;;;;5094450;28;20208;-64
2022/05/19 12:09:56;;;;;;;3.67;1.20;;;20.40;80.80;;;;;;5094512;28;20188;-61
2022/05/19 12:12:27;;;;;;;5.00;1.43;;;20.50;79.90;;;;;;5093859;28;20212;-61
2022/05/19 12:15:18;;;;;;;3.93;1.33;;;20.60;80.50;;;;;;5093332;28;20192;-63
2022/05/19 12:17:47;;;;;;;1.40;1.23;;;20.70;80.40;;;;;;5093818;28;20198;-63
2022/05/19 12:20:50;;;;;;;3.30;1.50;;;20.90;79.60;;;;;;5093910;28;20200;-61
2022/05/19 12:23:26;;;;;;;2.17;1.20;;;20.90;79.10;;;;;;5094229;28;20201;-62
2022/05/19 12:25:58;;;;;;;6.63;1.77;;;20.90;78.10;;;;;;5094148;28;20660;-63
2022/05/19 12:28:39;;;;;;;6.07;1.40;;;20.80;77.60;;;;;;5093771;28;20195;-63
2022/05/19 12:34:02;;;;;;;2.47;1.60;;;20.70;76.70;;;;;;5093748;28;20287;-63
2022/05/19 12:36:38;;;;;;;3.20;1.80;;;20.60;75.30;;;;;;5093955;28;20690;-62
2022/05/19 12:39:24;;;;;;;1.50;1.40;;;20.50;75.80;;;;;;5093967;28;20634;-63
2022/05/19 12:41:57;;;;;;;3.63;1.50;;;20.60;74.80;;;;;;5091136;28;20669;-63
2022/05/19 12:44:32;;;;;;;3.40;1.73;;;20.70;74.70;;;;;;5093656;28;20229;-62
2022/05/19 12:47:04;;;;;;;3.27;1.20;;;20.60;73.50;;;;;;5093812;28;20563;-62
2022/05/19 12:49:35;;;;;;;6.13;1.43;;;20.50;73.60;;;;;;5093280;28;20639;-62
2022/05/19 12:52:08;;;;;;;3.70;1.50;;;20.30;72.00;;;;;;5093729;28;20196;-61
2022/05/19 12:54:36;;;;;;;3.33;1.40;;;20.10;72.00;;;;;;5093438;28;20187;-62
2022/05/19 12:57:27;;;;;;;3.47;1.53;;;19.90;72.10;;;;;;5093366;28;20550;-62
2022/05/19 13:00:07;;;;;;;5.37;2.27;;;19.70;73.50;;;;;;5093672;28;20199;-62
2022/05/19 13:02:42;;;;;;;5.20;2.30;;;19.60;73.90;;;;;;5093604;28;20221;-62
2022/05/19 13:05:21;;;;;;;5.87;2.77;;;19.50;74.10;;;;;;5093583;28;20234;-63
2022/05/19 13:07:51;;;;;;;3.87;2.00;;;19.40;74.30;;;;;;5093187;28;20233;-61
2022/05/19 13:10:23;;;;;;;4.90;2.07;;;19.50;75.30;;;;;;5093243;28;20649;-62
2022/05/19 13:12:58;;;;;;;6.27;1.90;;;19.50;73.00;;;;;;5093187;28;20213;-61
2022/05/19 13:15:27;;;;;;;3.83;1.60;;;19.50;70.80;;;;;;5093067;28;20555;-63
2022/05/19 13:17:57;;;;;;;1.70;1.23;;;19.60;70.30;;;;;;5093183;28;20207;-63
2022/05/19 13:20:27;;;;;;;1.93;1.20;;;19.70;71.00;;;;;;5092804;28;20211;-62
2022/05/19 13:22:59;;;;;;;2.13;1.30;;;19.90;71.20;;;;;;5093058;28;20201;-61